Time;durP1;ratioP1;P1;durP2;ratioP2;P2;SDS_P1;SDS_P2;PMS_P1;PMS_P2;Temp;Humidity;BMP_temperature;BMP_pressure;BME280_temperature;BME280_humidity;BME280_pressure;Samples;Min_cycle;Max_cycle;Signal;HPM_P1;HPM_P2
2023/12/03 00:01:01;;;;;;;32.53;14.97;;;;;;;;;;5020028;28;20315;-82
2023/12/03 00:03:27;;;;;;;29.73;14.23;;;;;;;;;;5022857;28;20075;-80
2023/12/03 00:05:53;;;;;;;30.53;14.03;;;;;;;;;;5020379;28;20264;-81
2023/12/03 00:08:19;;;;;;;28.93;14.67;;;;;;;;;;5020163;28;20060;-81
2023/12/03 00:10:45;;;;;;;29.77;13.43;;;;;;;;;;5037841;28;20613;-80
2023/12/03 00:13:11;;;;;;;30.17;14.13;;;;;;;;;;5014587;28;20322;-81
2023/12/03 00:15:37;;;;;;;36.20;14.87;;;;;;;;;;5013274;28;20633;-82
2023/12/03 00:18:03;;;;;;;27.50;13.43;;;;;;;;;;5014979;28;20051;-81
2023/12/03 00:20:29;;;;;;;26.37;13.73;;;;;;;;;;5032663;28;20090;-81
2023/12/03 00:22:55;;;;;;;25.80;13.30;;;;;;;;;;5018323;28;20276;-81
2023/12/03 00:25:21;;;;;;;26.43;13.00;;;;;;;;;;5030175;28;20029;-79
2023/12/03 00:27:48;;;;;;;26.37;14.00;;;;;;;;;;5015616;28;20029;-81
2023/12/03 00:30:14;;;;;;;27.73;13.80;;;;;;;;;;5017484;28;20524;-79
2023/12/03 00:32:40;;;;;;;29.47;13.87;;;;;;;;;;5035017;28;20751;-80
2023/12/03 00:35:07;;;;;;;29.00;13.67;;;;;;;;;;5017177;28;20740;-81
2023/12/03 00:37:33;;;;;;;31.23;12.90;;;;;;;;;;5035240;28;20284;-82
2023/12/03 00:39:59;;;;;;;27.93;13.57;;;;;;;;;;5019191;28;20291;-81
2023/12/03 00:42:25;;;;;;;28.87;13.07;;;;;;;;;;5015797;28;20041;-80
2023/12/03 00:44:53;;;;;;;27.33;13.13;;;;;;;;;;5017181;28;20268;-81
2023/12/03 00:47:19;;;;;;;29.60;13.90;;;;;;;;;;5033462;28;20072;-81
2023/12/03 00:49:45;;;;;;;32.73;13.57;;;;;;;;;;5017072;28;20756;-79
2023/12/03 00:52:11;;;;;;;24.40;12.43;;;;;;;;;;5016213;28;20037;-80
2023/12/03 00:54:37;;;;;;;27.30;12.07;;;;;;;;;;5019673;28;20503;-82
2023/12/03 00:57:05;;;;;;;24.87;12.33;;;;;;;;;;5032207;28;20025;-81
2023/12/03 00:59:31;;;;;;;31.17;13.10;;;;;;;;;;5017472;28;20033;-81
2023/12/03 01:01:57;;;;;;;27.90;13.27;;;;;;;;;;5017678;28;20327;-80
2023/12/03 01:04:23;;;;;;;26.23;13.10;;;;;;;;;;5016575;28;20048;-80
2023/12/03 01:06:49;;;;;;;27.90;12.90;;;;;;;;;;5016738;28;20048;-81
2023/12/03 01:09:15;;;;;;;25.97;13.97;;;;;;;;;;5016747;28;20034;-81
2023/12/03 01:11:42;;;;;;;24.17;13.37;;;;;;;;;;5015879;28;20268;-79
2023/12/03 01:14:08;;;;;;;21.30;11.50;;;;;;;;;;5017017;28;20021;-82
2023/12/03 01:16:34;;;;;;;28.03;13.40;;;;;;;;;;5017200;28;20283;-80
2023/12/03 01:19:00;;;;;;;24.00;13.10;;;;;;;;;;5016934;28;20033;-81
2023/12/03 01:21:28;;;;;;;29.50;12.73;;;;;;;;;;5017753;28;20061;-81
2023/12/03 01:23:57;;;;;;;28.53;13.90;;;;;;;;;;5017677;28;20049;-81
2023/12/03 01:26:22;;;;;;;26.50;12.27;;;;;;;;;;5016377;28;20287;-80
2023/12/03 01:28:48;;;;;;;29.60;13.13;;;;;;;;;;5016494;28;20268;-83
2023/12/03 01:31:14;;;;;;;29.77;14.30;;;;;;;;;;5016634;28;20029;-81
2023/12/03 01:33:40;;;;;;;23.70;12.53;;;;;;;;;;5015754;28;20460;-79
2023/12/03 01:36:07;;;;;;;22.80;11.53;;;;;;;;;;5016619;28;20029;-79
2023/12/03 01:38:33;;;;;;;27.83;13.33;;;;;;;;;;5015725;28;20029;-81
2023/12/03 01:40:59;;;;;;;23.87;12.23;;;;;;;;;;5016110;28;20368;-81
2023/12/03 01:43:25;;;;;;;28.70;13.17;;;;;;;;;;5016481;28;20040;-81
2023/12/03 01:45:51;;;;;;;26.13;12.00;;;;;;;;;;5016368;28;20268;-80
2023/12/03 01:48:17;;;;;;;27.73;13.10;;;;;;;;;;5015232;28;20029;-82
2023/12/03 01:50:43;;;;;;;24.53;12.73;;;;;;;;;;5016245;28;20044;-81
2023/12/03 01:53:10;;;;;;;22.30;11.93;;;;;;;;;;5033103;28;20295;-84
2023/12/03 01:55:36;;;;;;;21.80;11.87;;;;;;;;;;5015072;28;20311;-82
2023/12/03 01:58:02;;;;;;;27.07;13.40;;;;;;;;;;5014726;28;20299;-79
2023/12/03 02:00:28;;;;;;;24.73;12.37;;;;;;;;;;5015445;28;20377;-80
2023/12/03 02:02:54;;;;;;;27.27;12.70;;;;;;;;;;5015602;28;20426;-82
2023/12/03 02:05:20;;;;;;;27.27;12.33;;;;;;;;;;5015843;28;20025;-81
2023/12/03 02:07:46;;;;;;;23.87;12.00;;;;;;;;;;5015929;28;20036;-80
2023/12/03 02:10:12;;;;;;;24.63;12.47;;;;;;;;;;5032649;28;20041;-80
2023/12/03 02:12:38;;;;;;;23.70;11.80;;;;;;;;;;5016071;28;20092;-80
2023/12/03 02:15:04;;;;;;;24.17;12.33;;;;;;;;;;5029633;28;20342;-80
2023/12/03 02:17:30;;;;;;;25.77;12.47;;;;;;;;;;5017373;28;20280;-81
2023/12/03 02:19:56;;;;;;;23.93;12.63;;;;;;;;;;5020136;28;20678;-82
2023/12/03 02:22:22;;;;;;;25.00;12.33;;;;;;;;;;5020295;28;20029;-81
2023/12/03 02:24:48;;;;;;;28.03;13.97;;;;;;;;;;5018242;28;20280;-81
2023/12/03 02:27:14;;;;;;;29.00;13.03;;;;;;;;;;5036179;28;20307;-80
2023/12/03 02:29:40;;;;;;;28.70;13.83;;;;;;;;;;5018699;28;20029;-80
2023/12/03 02:32:06;;;;;;;26.20;13.50;;;;;;;;;;5020287;28;20391;-83
2023/12/03 02:34:32;;;;;;;25.10;12.70;;;;;;;;;;5019073;28;20033;-81
2023/12/03 02:36:58;;;;;;;24.17;10.97;;;;;;;;;;5036445;28;20033;-80
2023/12/03 02:39:24;;;;;;;24.37;12.07;;;;;;;;;;5019637;28;20487;-80
2023/12/03 02:41:52;;;;;;;24.03;11.43;;;;;;;;;;5017910;28;20029;-82
2023/12/03 02:44:18;;;;;;;20.73;10.60;;;;;;;;;;5036580;28;20092;-81
2023/12/03 02:46:44;;;;;;;19.33;10.53;;;;;;;;;;5019571;28;20763;-80
2023/12/03 02:49:10;;;;;;;25.57;11.17;;;;;;;;;;5019078;28;20030;-79
2023/12/03 02:51:36;;;;;;;21.57;11.33;;;;;;;;;;5018139;28;20345;-81
2023/12/03 02:54:02;;;;;;;25.13;12.27;;;;;;;;;;5018472;28;20276;-85
2023/12/03 02:56:28;;;;;;;21.13;10.83;;;;;;;;;;5016847;28;20048;-82
2023/12/03 02:58:54;;;;;;;22.47;11.23;;;;;;;;;;5016478;28;20972;-82
2023/12/03 03:01:20;;;;;;;23.10;10.87;;;;;;;;;;5030737;28;20458;-83
2023/12/03 03:03:48;;;;;;;21.37;11.13;;;;;;;;;;5031330;28;20276;-82
2023/12/03 03:06:14;;;;;;;24.27;11.00;;;;;;;;;;5033702;28;20029;-82
2023/12/03 03:08:43;;;;;;;19.33;10.23;;;;;;;;;;5032415;28;20280;-80
2023/12/03 03:11:09;;;;;;;25.03;11.40;;;;;;;;;;5016781;28;20276;-82
2023/12/03 03:13:35;;;;;;;18.27;10.07;;;;;;;;;;5019641;28;20617;-81
2023/12/03 03:16:01;;;;;;;24.57;12.00;;;;;;;;;;5030669;28;20280;-81
2023/12/03 03:18:27;;;;;;;22.43;10.93;;;;;;;;;;5021320;28;20088;-83
2023/12/03 03:20:55;;;;;;;20.07;9.97;;;;;;;;;;5029000;28;20674;-84
2023/12/03 03:23:21;;;;;;;26.97;11.97;;;;;;;;;;5017421;28;20041;-81
2023/12/03 03:25:47;;;;;;;22.17;11.33;;;;;;;;;;5018724;28;20301;-82
2023/12/03 03:28:13;;;;;;;18.70;10.67;;;;;;;;;;5029019;28;20311;-79
2023/12/03 03:30:39;;;;;;;24.53;11.17;;;;;;;;;;5015792;28;20461;-81
2023/12/03 03:33:05;;;;;;;22.33;11.67;;;;;;;;;;5018846;28;20033;-81
2023/12/03 03:35:32;;;;;;;22.67;11.67;;;;;;;;;;5018817;28;20176;-83
2023/12/03 03:37:58;;;;;;;25.80;11.33;;;;;;;;;;5018968;28;20287;-81
2023/12/03 03:40:24;;;;;;;23.83;12.03;;;;;;;;;;5018853;28;20287;-81
2023/12/03 03:42:50;;;;;;;24.23;12.03;;;;;;;;;;5031667;28;20047;-80
2023/12/03 03:45:16;;;;;;;23.90;11.50;;;;;;;;;;5017340;28;20432;-80
2023/12/03 03:47:42;;;;;;;23.23;12.00;;;;;;;;;;5018471;28;20159;-81
2023/12/03 03:50:08;;;;;;;23.30;10.83;;;;;;;;;;5018089;28;20091;-83
2023/12/03 03:52:34;;;;;;;24.43;11.80;;;;;;;;;;5028762;28;20041;-80
2023/12/03 03:55:00;;;;;;;24.40;12.30;;;;;;;;;;5018557;28;20335;-80
2023/12/03 03:57:26;;;;;;;26.27;12.90;;;;;;;;;;5017925;28;20303;-79
2023/12/03 03:59:52;;;;;;;22.97;11.90;;;;;;;;;;5017104;28;20740;-82
2023/12/03 04:02:18;;;;;;;28.53;14.17;;;;;;;;;;5019037;28;20086;-81
2023/12/03 04:04:44;;;;;;;26.23;13.53;;;;;;;;;;5019954;28;20022;-81
2023/12/03 04:07:10;;;;;;;26.10;12.73;;;;;;;;;;5018388;28;20060;-80
2023/12/03 04:09:36;;;;;;;24.23;13.07;;;;;;;;;;5017132;28;20060;-81
2023/12/03 04:12:03;;;;;;;24.47;12.53;;;;;;;;;;5024710;28;20284;-81
2023/12/03 04:14:29;;;;;;;26.83;12.30;;;;;;;;;;5029272;28;20079;-80
2023/12/03 04:16:58;;;;;;;25.73;13.43;;;;;;;;;;5013721;28;20300;-81
2023/12/03 04:19:24;;;;;;;25.10;13.23;;;;;;;;;;5031031;28;20040;-81
2023/12/03 04:21:50;;;;;;;23.93;12.60;;;;;;;;;;5029853;28;21973;-82
2023/12/03 04:24:16;;;;;;;23.97;12.90;;;;;;;;;;5034302;28;20040;-82
2023/12/03 04:26:45;;;;;;;25.73;12.40;;;;;;;;;;5029592;28;20431;-80
2023/12/03 04:29:12;;;;;;;25.23;12.10;;;;;;;;;;5035721;28;20029;-83
2023/12/03 04:31:38;;;;;;;26.13;12.83;;;;;;;;;;5016120;28;20276;-80
2023/12/03 04:34:04;;;;;;;21.70;11.90;;;;;;;;;;5016149;28;20276;-79
2023/12/03 04:36:30;;;;;;;24.00;12.67;;;;;;;;;;5016510;28;20029;-80
2023/12/03 04:38:56;;;;;;;22.53;11.20;;;;;;;;;;5011704;28;20299;-79
2023/12/03 04:41:22;;;;;;;20.20;11.13;;;;;;;;;;5016477;28;20076;-80
2023/12/03 04:43:48;;;;;;;25.73;11.90;;;;;;;;;;5019430;28;20021;-81
2023/12/03 04:46:14;;;;;;;20.60;10.53;;;;;;;;;;5028129;28;20264;-81
2023/12/03 04:48:41;;;;;;;20.80;11.23;;;;;;;;;;5031312;28;20033;-81
2023/12/03 04:51:07;;;;;;;23.13;11.27;;;;;;;;;;5011687;28;20272;-81
2023/12/03 04:53:36;;;;;;;22.43;11.67;;;;;;;;;;5018712;28;20268;-86
2023/12/03 04:56:02;;;;;;;21.20;10.80;;;;;;;;;;5029988;28;20260;-82
2023/12/03 04:58:28;;;;;;;23.97;10.47;;;;;;;;;;5018956;28;20311;-81
2023/12/03 05:00:53;;;;;;;30.73;13.30;;;;;;;;;;5035891;28;20311;-83
2023/12/03 05:03:20;;;;;;;23.33;11.43;;;;;;;;;;5032715;28;20033;-81
2023/12/03 05:05:46;;;;;;;24.87;11.67;;;;;;;;;;5013447;28;20030;-81
2023/12/03 05:08:12;;;;;;;25.57;11.77;;;;;;;;;;5012754;28;20287;-80
2023/12/03 05:10:38;;;;;;;21.97;10.90;;;;;;;;;;5018995;28;20086;-82
2023/12/03 05:13:04;;;;;;;22.57;9.70;;;;;;;;;;5018307;28;20104;-81
2023/12/03 05:15:30;;;;;;;25.60;11.07;;;;;;;;;;5019164;28;20377;-80
2023/12/03 05:17:56;;;;;;;23.77;10.33;;;;;;;;;;5035237;28;20122;-81
2023/12/03 05:20:25;;;;;;;17.07;8.83;;;;;;;;;;5035706;28;20288;-81
2023/12/03 05:22:53;;;;;;;16.40;8.93;;;;;;;;;;5027816;28;20257;-81
2023/12/03 05:25:19;;;;;;;19.87;9.83;;;;;;;;;;5029317;28;20280;-83
2023/12/03 05:27:48;;;;;;;22.50;10.60;;;;;;;;;;5023805;28;20636;-81
2023/12/03 05:30:14;;;;;;;21.33;10.70;;;;;;;;;;5019490;28;20722;-81
2023/12/03 05:32:45;;;;;;;21.80;10.77;;;;;;;;;;5018214;28;20256;-84
2023/12/03 05:35:12;;;;;;;26.80;11.63;;;;;;;;;;5022246;28;20351;-82
2023/12/03 05:37:41;;;;;;;21.00;11.40;;;;;;;;;;5011509;28;20268;-81
2023/12/03 05:40:08;;;;;;;22.43;10.83;;;;;;;;;;5025617;28;20368;-82
2023/12/03 05:42:35;;;;;;;21.07;10.30;;;;;;;;;;5014521;28;20382;-83
2023/12/03 05:45:00;;;;;;;20.30;10.13;;;;;;;;;;5010211;28;20344;-81
2023/12/03 05:47:26;;;;;;;18.57;9.60;;;;;;;;;;5016045;28;20728;-82
2023/12/03 05:49:53;;;;;;;22.73;10.60;;;;;;;;;;5019029;28;20037;-82
2023/12/03 05:52:21;;;;;;;22.20;10.37;;;;;;;;;;5015742;28;20029;-82
2023/12/03 05:54:47;;;;;;;20.63;10.60;;;;;;;;;;5009462;28;20261;-81
2023/12/03 05:57:13;;;;;;;19.97;10.07;;;;;;;;;;5008756;28;20268;-81
2023/12/03 05:59:39;;;;;;;23.13;10.87;;;;;;;;;;5020576;28;20288;-81
2023/12/03 06:02:05;;;;;;;20.97;10.37;;;;;;;;;;5007831;28;20271;-81
2023/12/03 06:04:31;;;;;;;23.10;10.83;;;;;;;;;;5014633;28;20030;-81
2023/12/03 06:06:57;;;;;;;22.27;10.13;;;;;;;;;;5018637;28;20025;-82
2023/12/03 06:09:23;;;;;;;24.03;11.10;;;;;;;;;;5036655;28;20052;-81
2023/12/03 06:11:49;;;;;;;18.53;9.40;;;;;;;;;;5021233;28;20767;-81
2023/12/03 06:14:15;;;;;;;22.37;10.20;;;;;;;;;;5003896;28;20029;-83
2023/12/03 06:16:41;;;;;;;22.57;9.80;;;;;;;;;;5010442;28;20104;-82
2023/12/03 06:19:07;;;;;;;22.07;10.10;;;;;;;;;;5012659;28;20374;-81
2023/12/03 06:21:33;;;;;;;18.00;9.03;;;;;;;;;;5014284;28;20065;-80
2023/12/03 06:23:59;;;;;;;19.50;9.07;;;;;;;;;;5008257;28;20033;-79
2023/12/03 06:26:27;;;;;;;16.83;8.47;;;;;;;;;;5015135;28;20453;-82
2023/12/03 06:28:55;;;;;;;15.77;8.03;;;;;;;;;;5008217;28;20604;-81
2023/12/03 06:31:21;;;;;;;17.43;8.23;;;;;;;;;;5008352;28;20279;-82
2023/12/03 06:33:47;;;;;;;16.43;8.33;;;;;;;;;;5015315;28;20278;-81
2023/12/03 06:36:16;;;;;;;18.47;8.57;;;;;;;;;;5015623;28;20504;-81
2023/12/03 06:38:42;;;;;;;21.40;9.73;;;;;;;;;;5015404;28;20461;-82
2023/12/03 06:41:08;;;;;;;15.03;8.03;;;;;;;;;;5015940;28;20288;-82
2023/12/03 06:43:37;;;;;;;18.07;9.37;;;;;;;;;;5023300;28;20057;-80
2023/12/03 06:46:03;;;;;;;18.07;8.87;;;;;;;;;;5008386;28;20018;-80
2023/12/03 06:48:29;;;;;;;20.63;9.53;;;;;;;;;;5014710;28;20271;-81
2023/12/03 06:50:55;;;;;;;20.00;9.00;;;;;;;;;;5015458;28;20068;-84
2023/12/03 06:53:22;;;;;;;16.67;8.37;;;;;;;;;;5013346;28;20049;-82
2023/12/03 06:55:48;;;;;;;20.03;9.57;;;;;;;;;;5029699;28;20276;-81
2023/12/03 06:58:14;;;;;;;20.00;9.00;;;;;;;;;;5013827;28;20030;-80
2023/12/03 07:00:40;;;;;;;18.07;8.60;;;;;;;;;;5015216;28;20124;-80
2023/12/03 07:03:06;;;;;;;16.53;9.03;;;;;;;;;;5015589;28;20087;-80
2023/12/03 07:05:32;;;;;;;17.60;9.07;;;;;;;;;;5018628;28;20276;-80
2023/12/03 07:07:58;;;;;;;17.60;8.57;;;;;;;;;;5018829;28;20033;-81
2023/12/03 07:10:24;;;;;;;18.87;9.67;;;;;;;;;;5018237;28;20040;-80
2023/12/03 07:12:50;;;;;;;19.00;9.67;;;;;;;;;;5035726;28;20275;-80
2023/12/03 07:15:16;;;;;;;20.33;9.63;;;;;;;;;;5018789;28;20791;-82
2023/12/03 07:17:45;;;;;;;18.37;9.40;;;;;;;;;;5015424;28;20029;-79
2023/12/03 07:20:13;;;;;;;18.80;9.40;;;;;;;;;;5017243;28;20295;-79
2023/12/03 07:22:40;;;;;;;16.80;8.53;;;;;;;;;;5035715;28;20363;-80
2023/12/03 07:25:07;;;;;;;22.50;10.83;;;;;;;;;;5018417;28;20365;-82
2023/12/03 07:27:33;;;;;;;20.03;10.03;;;;;;;;;;5017304;28;20287;-82
2023/12/03 07:29:59;;;;;;;20.97;9.37;;;;;;;;;;5018839;28;20264;-80
2023/12/03 07:32:25;;;;;;;21.00;9.83;;;;;;;;;;5017751;28;20538;-81
2023/12/03 07:34:51;;;;;;;21.27;10.50;;;;;;;;;;5017953;28;20106;-82
2023/12/03 07:37:20;;;;;;;20.80;9.87;;;;;;;;;;5017881;28;20317;-82
2023/12/03 07:39:46;;;;;;;24.13;9.80;;;;;;;;;;5018217;28;20288;-80
2023/12/03 07:42:12;;;;;;;22.53;10.37;;;;;;;;;;5018114;28;20280;-81
2023/12/03 07:44:38;;;;;;;22.57;10.43;;;;;;;;;;5036028;28;20076;-80
2023/12/03 07:47:04;;;;;;;24.17;9.93;;;;;;;;;;5017686;28;21160;-81
2023/12/03 07:49:30;;;;;;;28.10;12.93;;;;;;;;;;5018268;28;20119;-81
2023/12/03 07:51:59;;;;;;;24.17;10.50;;;;;;;;;;5018072;28;20740;-79
2023/12/03 07:54:25;;;;;;;25.77;11.53;;;;;;;;;;5016797;28;20051;-80
2023/12/03 07:56:51;;;;;;;25.77;11.23;;;;;;;;;;5016217;28;20273;-81
2023/12/03 07:59:17;;;;;;;25.37;11.53;;;;;;;;;;5034423;28;20033;-81
2023/12/03 08:01:43;;;;;;;26.17;11.33;;;;;;;;;;5018033;28;20457;-79
2023/12/03 08:04:09;;;;;;;27.00;12.07;;;;;;;;;;5017985;28;20268;-81
2023/12/03 08:06:35;;;;;;;29.27;12.73;;;;;;;;;;5016443;28;20277;-80
2023/12/03 08:09:01;;;;;;;25.67;11.47;;;;;;;;;;5018593;28;20287;-83
2023/12/03 08:11:29;;;;;;;25.93;11.73;;;;;;;;;;5021630;28;20083;-82
2023/12/03 08:13:56;;;;;;;28.97;11.80;;;;;;;;;;5018210;28;20330;-81
2023/12/03 08:16:22;;;;;;;27.80;12.33;;;;;;;;;;5018172;28;20382;-84
2023/12/03 08:18:49;;;;;;;29.57;12.53;;;;;;;;;;5019458;28;20800;-81
2023/12/03 08:21:15;;;;;;;27.97;11.90;;;;;;;;;;5017023;28;20030;-80
2023/12/03 08:23:41;;;;;;;27.70;12.80;;;;;;;;;;5018027;28;20616;-79
2023/12/03 08:26:07;;;;;;;30.97;12.30;;;;;;;;;;5017817;28;20277;-80
2023/12/03 08:28:36;;;;;;;30.47;12.70;;;;;;;;;;5017932;28;20275;-81
2023/12/03 08:31:02;;;;;;;25.23;11.53;;;;;;;;;;5034486;28;20280;-81
2023/12/03 08:33:28;;;;;;;26.13;11.70;;;;;;;;;;5019865;28;20369;-80
2023/12/03 08:35:54;;;;;;;27.50;12.70;;;;;;;;;;5017248;28;20637;-80
2023/12/03 08:38:20;;;;;;;29.93;12.97;;;;;;;;;;5016756;28;20080;-81
2023/12/03 08:40:47;;;;;;;25.83;12.63;;;;;;;;;;5017500;28;20320;-80
2023/12/03 08:43:15;;;;;;;28.20;12.30;;;;;;;;;;5017163;28;20288;-80
2023/12/03 08:45:41;;;;;;;28.03;11.93;;;;;;;;;;5017806;28;20367;-82
2023/12/03 08:48:07;;;;;;;24.20;11.53;;;;;;;;;;5017013;28;20287;-81
2023/12/03 08:50:33;;;;;;;33.23;13.87;;;;;;;;;;5029875;28;20397;-84
2023/12/03 08:53:03;;;;;;;25.87;11.33;;;;;;;;;;5015791;28;20316;-85
2023/12/03 08:55:31;;;;;;;26.83;11.33;;;;;;;;;;5034538;28;20280;-82
2023/12/03 08:57:57;;;;;;;22.90;11.47;;;;;;;;;;5022099;28;20358;-81
2023/12/03 09:00:23;;;;;;;26.00;10.13;;;;;;;;;;5017422;28;20299;-78
2023/12/03 09:02:49;;;;;;;21.90;11.40;;;;;;;;;;5016251;28;20288;-81
2023/12/03 09:05:15;;;;;;;22.53;10.83;;;;;;;;;;5025678;28;20025;-82
2023/12/03 09:07:41;;;;;;;25.40;11.00;;;;;;;;;;5016974;28;20091;-80
2023/12/03 09:10:10;;;;;;;26.23;11.10;;;;;;;;;;5026985;28;20277;-80
2023/12/03 09:12:36;;;;;;;23.83;11.23;;;;;;;;;;5016730;28;20033;-79
2023/12/03 09:15:04;;;;;;;22.93;10.67;;;;;;;;;;5031145;28;20283;-81
2023/12/03 09:17:32;;;;;;;33.07;11.63;;;;;;;;;;5026457;28;20458;-80
2023/12/03 09:19:58;;;;;;;23.67;11.23;;;;;;;;;;5016967;28;20589;-80
2023/12/03 09:22:24;;;;;;;28.80;11.87;;;;;;;;;;5016434;28;20291;-83
2023/12/03 09:24:49;;;;;;;26.00;12.53;;;;;;;;;;5014509;28;20280;-82
2023/12/03 09:27:16;;;;;;;25.50;10.90;;;;;;;;;;5030961;28;20136;-80
2023/12/03 09:29:42;;;;;;;23.17;11.27;;;;;;;;;;5028128;28;20041;-82
2023/12/03 09:32:08;;;;;;;31.20;12.90;;;;;;;;;;5014119;28;20284;-81
2023/12/03 09:34:34;;;;;;;26.80;11.83;;;;;;;;;;5016834;28;20268;-82
2023/12/03 09:37:01;;;;;;;23.33;11.03;;;;;;;;;;5016485;28;20025;-80
2023/12/03 09:39:28;;;;;;;25.30;11.10;;;;;;;;;;5015846;28;20279;-81
2023/12/03 09:41:54;;;;;;;22.43;10.20;;;;;;;;;;5016342;28;20306;-80
2023/12/03 09:44:41;;;;;;;24.27;11.60;;;;;;;;;;5015851;28;20268;-81
2023/12/03 09:47:10;;;;;;;24.60;11.63;;;;;;;;;;5026947;28;20287;-80
2023/12/03 09:49:38;;;;;;;24.43;10.47;;;;;;;;;;5015622;28;20290;-79
2023/12/03 09:52:06;;;;;;;24.17;10.43;;;;;;;;;;5016078;28;20327;-80
2023/12/03 09:54:32;;;;;;;23.47;10.50;;;;;;;;;;5014464;28;20276;-81
2023/12/03 09:57:00;;;;;;;23.27;10.80;;;;;;;;;;5029247;28;20279;-81
2023/12/03 09:59:27;;;;;;;22.17;10.73;;;;;;;;;;5016314;28;20732;-81
2023/12/03 10:01:55;;;;;;;24.50;11.20;;;;;;;;;;5024088;28;20272;-81
2023/12/03 10:04:21;;;;;;;24.77;11.50;;;;;;;;;;5030006;28;20298;-81
2023/12/03 10:06:49;;;;;;;24.43;11.27;;;;;;;;;;5027393;28;20268;-84
2023/12/03 10:09:15;;;;;;;31.40;11.93;;;;;;;;;;5015112;28;20759;-80
2023/12/03 10:11:45;;;;;;;22.70;10.60;;;;;;;;;;5016805;28;20283;-80
2023/12/03 10:14:15;;;;;;;23.27;10.00;;;;;;;;;;5026488;28;20287;-80
2023/12/03 10:16:47;;;;;;;23.03;10.83;;;;;;;;;;5024902;28;20314;-79
2023/12/03 10:19:21;;;;;;;24.13;10.37;;;;;;;;;;5028456;28;20272;-83
2023/12/03 10:21:53;;;;;;;20.73;9.93;;;;;;;;;;5023944;28;20323;-81
2023/12/03 10:24:19;;;;;;;;;;;;;;;;;;5016672;28;20873;-80
2023/12/03 10:26:52;;;;;;;22.43;9.57;;;;;;;;;;5015512;28;19960;-80
2023/12/03 10:29:26;;;;;;;21.43;9.90;;;;;;;;;;5016406;28;20025;-82
2023/12/03 10:31:53;;;;;;;22.60;10.10;;;;;;;;;;5015499;28;20325;-79
2023/12/03 10:34:21;;;;;;;26.07;11.00;;;;;;;;;;5014987;28;20632;-80
2023/12/03 10:36:50;;;;;;;19.67;9.40;;;;;;;;;;5014528;28;20743;-80
2023/12/03 10:39:19;;;;;;;19.73;10.03;;;;;;;;;;5034129;28;20292;-80
2023/12/03 10:41:51;;;;;;;17.43;8.53;;;;;;;;;;5029462;28;20281;-81
2023/12/03 10:44:18;;;;;;;20.20;9.73;;;;;;;;;;5021907;28;20775;-81
2023/12/03 10:46:44;;;;;;;21.63;10.03;;;;;;;;;;5011885;28;20057;-81
2023/12/03 10:49:12;;;;;;;22.03;10.50;;;;;;;;;;5038561;28;20276;-81
2023/12/03 10:51:40;;;;;;;21.00;10.23;;;;;;;;;;5023540;28;20325;-82
2023/12/03 10:54:09;;;;;;;22.00;10.07;;;;;;;;;;5022471;28;20272;-82
2023/12/03 10:56:35;;;;;;;19.53;10.33;;;;;;;;;;5039759;28;20299;-79
2023/12/03 10:59:05;;;;;;;18.53;8.97;;;;;;;;;;5018436;28;20026;-81
2023/12/03 11:01:32;;;;;;;18.03;8.67;;;;;;;;;;5016974;28;20025;-83
2023/12/03 11:04:21;;;;;;;17.57;8.50;;;;;;;;;;5013721;28;20033;-80
2023/12/03 11:06:49;;;;;;;18.93;9.40;;;;;;;;;;5022476;28;20344;-80
2023/12/03 11:09:16;;;;;;;18.83;9.80;;;;;;;;;;5021699;28;20368;-80
2023/12/03 11:11:42;;;;;;;24.00;10.63;;;;;;;;;;5017349;28;20265;-80
2023/12/03 11:14:08;;;;;;;21.77;10.27;;;;;;;;;;5032658;28;20025;-81
2023/12/03 11:16:40;;;;;;;22.30;9.67;;;;;;;;;;5012610;28;20036;-80
2023/12/03 11:19:08;;;;;;;18.55;9.23;;;;;;;;;;5022816;28;20025;-80
2023/12/03 11:22:01;;;;;;;20.30;9.93;;;;;;;;;;5032426;28;20033;-80
2023/12/03 11:24:27;;;;;;;16.80;9.10;;;;;;;;;;5019090;28;20438;-80
2023/12/03 11:26:53;;;;;;;17.33;9.77;;;;;;;;;;5015419;28;20040;-81
2023/12/03 11:29:39;;;;;;;18.10;9.33;;;;;;;;;;5006204;28;20033;-79
2023/12/03 11:32:08;;;;;;;18.73;8.87;;;;;;;;;;5020229;28;20018;-81
2023/12/03 11:34:34;;;;;;;17.63;8.90;;;;;;;;;;5014930;28;20030;-80
2023/12/03 11:37:02;;;;;;;20.43;8.93;;;;;;;;;;5020787;28;20047;-80
2023/12/03 11:39:28;;;;;;;16.67;8.63;;;;;;;;;;5013025;28;20025;-79
2023/12/03 11:42:01;;;;;;;18.93;10.10;;;;;;;;;;5020392;28;20032;-80
2023/12/03 11:44:27;;;;;;;;;;;;;;;;;;5021012;28;20026;-79
2023/12/03 11:47:03;;;;;;;16.53;8.67;;;;;;;;;;5020179;28;19905;-79
2023/12/03 11:49:29;;;;;;;17.87;8.70;;;;;;;;;;5019758;28;20029;-80
2023/12/03 11:51:55;;;;;;;18.47;9.40;;;;;;;;;;5019601;28;20104;-79
2023/12/03 11:54:25;;;;;;;15.93;9.10;;;;;;;;;;5019240;28;20288;-80
2023/12/03 11:56:54;;;;;;;18.57;9.67;;;;;;;;;;5020238;28;20357;-79
2023/12/03 11:59:21;;;;;;;20.07;9.87;;;;;;;;;;5018007;28;20044;-78
2023/12/03 12:01:47;;;;;;;20.30;10.07;;;;;;;;;;5037310;28;20036;-80
2023/12/03 12:04:23;;;;;;;20.73;10.37;;;;;;;;;;5019695;28;20014;-78
2023/12/03 12:06:50;;;;;;;22.17;10.73;;;;;;;;;;5017505;28;20030;-78
2023/12/03 12:09:22;;;;;;;20.60;10.97;;;;;;;;;;5018020;28;20030;-80
2023/12/03 12:11:49;;;;;;;20.40;10.55;;;;;;;;;;5011185;28;20289;-79
2023/12/03 12:14:17;;;;;;;20.43;10.80;;;;;;;;;;5019154;28;20524;-78
2023/12/03 12:16:43;;;;;;;18.47;9.13;;;;;;;;;;5019186;28;20034;-78
2023/12/03 12:19:09;;;;;;;18.07;9.47;;;;;;;;;;5017296;28;20037;-79
2023/12/03 12:21:34;;;;;;;22.10;9.80;;;;;;;;;;5016884;28;20049;-79
2023/12/03 12:24:03;;;;;;;17.73;9.47;;;;;;;;;;5016857;28;20025;-79
2023/12/03 12:26:29;;;;;;;17.47;9.47;;;;;;;;;;5017229;28;20026;-79
2023/12/03 12:28:55;;;;;;;19.10;9.57;;;;;;;;;;5025512;28;20140;-79
2023/12/03 12:31:26;;;;;;;18.50;9.53;;;;;;;;;;5012348;28;20029;-79
2023/12/03 12:33:52;;;;;;;17.73;9.23;;;;;;;;;;5011690;28;20045;-78
2023/12/03 12:36:21;;;;;;;18.93;9.00;;;;;;;;;;5011211;28;20033;-78
2023/12/03 12:38:47;;;;;;;14.07;8.40;;;;;;;;;;5008787;28;20128;-79
2023/12/03 12:41:13;;;;;;;17.23;9.00;;;;;;;;;;5016812;28;20029;-79
2023/12/03 12:44:02;;;;;;;14.50;7.77;;;;;;;;;;5019007;28;20154;-79
2023/12/03 12:46:32;;;;;;;16.37;7.97;;;;;;;;;;5016664;28;20033;-79
2023/12/03 12:49:17;;;;;;;17.17;8.60;;;;;;;;;;5017463;28;20102;-78
2023/12/03 12:51:45;;;;;;;14.70;7.83;;;;;;;;;;5017431;28;20120;-79
2023/12/03 12:54:12;;;;;;;15.83;7.70;;;;;;;;;;5017518;28;20437;-79
2023/12/03 12:56:46;;;;;;;16.00;7.93;;;;;;;;;;5016511;28;20061;-79
2023/12/03 12:59:14;;;;;;;17.40;8.20;;;;;;;;;;5033725;28;20112;-79
2023/12/03 13:01:42;;;;;;;14.77;7.93;;;;;;;;;;5016023;28;20411;-79
2023/12/03 13:04:08;;;;;;;14.93;8.00;;;;;;;;;;5016462;28;20037;-78
2023/12/03 13:06:34;;;;;;;15.90;7.87;;;;;;;;;;5033889;28;20029;-80
2023/12/03 13:09:00;;;;;;;13.77;7.30;;;;;;;;;;5015941;28;20946;-79
2023/12/03 13:11:26;;;;;;;17.53;8.07;;;;;;;;;;5015782;28;20124;-81
2023/12/03 13:13:52;;;;;;;12.63;7.47;;;;;;;;;;5016248;28;20540;-80
2023/12/03 13:16:18;;;;;;;15.67;7.70;;;;;;;;;;5015791;28;20849;-80
2023/12/03 13:18:44;;;;;;;13.23;7.40;;;;;;;;;;5017556;28;20056;-79
2023/12/03 13:21:10;;;;;;;19.00;8.67;;;;;;;;;;5034089;28;20112;-79
2023/12/03 13:23:36;;;;;;;16.20;8.23;;;;;;;;;;5016721;28;20438;-80
2023/12/03 13:26:02;;;;;;;16.10;7.17;;;;;;;;;;5015837;28;20108;-79
2023/12/03 13:28:28;;;;;;;12.47;7.07;;;;;;;;;;5016723;28;20025;-79
2023/12/03 13:30:54;;;;;;;15.57;7.07;;;;;;;;;;5016123;28;20036;-79
2023/12/03 13:33:20;;;;;;;12.47;6.40;;;;;;;;;;5032414;28;20041;-80
2023/12/03 13:35:46;;;;;;;14.60;6.67;;;;;;;;;;5016723;28;20120;-79
2023/12/03 13:38:12;;;;;;;13.47;6.97;;;;;;;;;;5014291;28;20919;-81
2023/12/03 13:40:40;;;;;;;13.03;7.00;;;;;;;;;;5015540;28;20029;-81
2023/12/03 13:43:06;;;;;;;14.87;7.33;;;;;;;;;;5015567;28;20099;-81
2023/12/03 13:45:32;;;;;;;12.57;6.50;;;;;;;;;;5015804;28;20044;-79
2023/12/03 13:47:58;;;;;;;14.67;7.00;;;;;;;;;;5015855;28;20025;-81
2023/12/03 13:50:24;;;;;;;11.93;6.73;;;;;;;;;;5032273;28;20036;-82
2023/12/03 13:52:53;;;;;;;11.00;5.83;;;;;;;;;;5014646;28;20342;-80
2023/12/03 13:55:19;;;;;;;14.77;7.60;;;;;;;;;;5015148;28;20045;-80
2023/12/03 13:57:45;;;;;;;13.87;6.80;;;;;;;;;;5015779;28;20049;-81
2023/12/03 14:00:11;;;;;;;13.70;6.93;;;;;;;;;;5015525;28;20847;-80
2023/12/03 14:02:37;;;;;;;16.07;8.17;;;;;;;;;;5015127;28;20017;-81
2023/12/03 14:05:03;;;;;;;14.67;8.17;;;;;;;;;;5015901;28;20048;-80
2023/12/03 14:07:29;;;;;;;15.57;7.57;;;;;;;;;;5015070;28;20492;-80
2023/12/03 14:09:55;;;;;;;13.60;7.60;;;;;;;;;;5015781;28;20022;-80
2023/12/03 14:12:21;;;;;;;11.77;6.83;;;;;;;;;;5015492;28;20473;-81
2023/12/03 14:14:47;;;;;;;12.87;6.97;;;;;;;;;;5019023;28;20163;-81
2023/12/03 14:17:13;;;;;;;13.70;7.80;;;;;;;;;;5018602;28;20040;-80
2023/12/03 14:19:39;;;;;;;14.97;8.07;;;;;;;;;;5019522;28;20442;-80